createdAt,value
2022-12-22T00:01:49.631Z,25.70
2022-12-22T00:05:50.283Z,23.20
2022-12-22T00:09:50.650Z,18.17
2022-12-22T00:13:51.450Z,18.92
2022-12-22T00:17:51.978Z,18.35
2022-12-22T00:21:52.315Z,18.38
2022-12-22T00:25:52.690Z,18.58
2022-12-22T00:29:59.275Z,17.13
2022-12-22T00:33:59.509Z,20.65
2022-12-22T00:38:00.017Z,21.13
2022-12-22T00:42:00.613Z,23.15
2022-12-22T00:46:00.877Z,27.38
2022-12-22T00:50:04.879Z,16.60
2022-12-22T00:54:05.454Z,28.33
2022-12-22T00:58:06.403Z,27.40
2022-12-22T01:02:08.146Z,19.83
2022-12-22T01:06:08.677Z,19.73
2022-12-22T01:10:11.750Z,25.10
2022-12-22T01:14:12.362Z,30.50
2022-12-22T01:18:12.910Z,32.50
2022-12-22T01:22:13.459Z,16.52
2022-12-22T01:26:14.395Z,19.50
2022-12-22T01:30:14.718Z,20.88
2022-12-22T01:34:14.962Z,14.98
2022-12-22T01:38:15.380Z,20.38
2022-12-22T01:42:15.862Z,13.70
2022-12-22T01:46:16.235Z,12.82
2022-12-22T01:50:16.883Z,18.15
2022-12-22T01:54:18.160Z,16.95
2022-12-22T01:58:18.782Z,18.17
2022-12-22T02:02:23.367Z,18.40
2022-12-22T02:06:48.609Z,10.85
2022-12-22T02:11:06.581Z,12.15
2022-12-22T02:15:32.235Z,10.73
2022-12-22T02:20:10.189Z,13.20
2022-12-22T02:24:47.688Z,8.95
2022-12-22T02:28:51.412Z,13.43
2022-12-22T02:32:57.120Z,13.93
2022-12-22T02:37:04.724Z,12.25
2022-12-22T02:41:17.366Z,12.48
2022-12-22T02:45:35.662Z,16.08
2022-12-22T02:49:49.408Z,25.15
2022-12-22T02:53:50.523Z,23.40
2022-12-22T02:57:50.976Z,34.83
2022-12-22T03:01:52.353Z,19.52
2022-12-22T03:05:52.724Z,31.95
2022-12-22T03:09:53.330Z,31.80
2022-12-22T03:13:53.615Z,28.65
2022-12-22T03:17:54.077Z,26.50
2022-12-22T03:21:54.542Z,19.67
2022-12-22T03:25:54.675Z,17.13
2022-12-22T03:29:36.704Z,27.77
2022-12-22T03:33:18.451Z,20.73
2022-12-22T03:37:00.224Z,18.95
2022-12-22T03:40:44.431Z,23.95
2022-12-22T03:44:44.819Z,17.52
2022-12-22T03:48:27.184Z,12.48
2022-12-22T03:52:08.960Z,9.70
2022-12-22T03:55:50.659Z,24.75
2022-12-22T03:59:32.458Z,20.42
2022-12-22T04:03:14.669Z,17.17
2022-12-22T04:06:57.621Z,15.10
2022-12-22T04:10:58.605Z,19.55
2022-12-22T04:14:40.545Z,20.15
2022-12-22T04:18:22.340Z,16.90
2022-12-22T04:22:07.794Z,8.90
2022-12-22T04:25:49.664Z,6.47
2022-12-22T04:29:36.613Z,8.45
2022-12-22T04:33:22.869Z,5.63
2022-12-22T04:37:16.800Z,7.95
2022-12-22T04:40:59.336Z,4.63
2022-12-22T04:44:41.163Z,4.20
2022-12-22T04:48:28.579Z,7.07
2022-12-22T04:52:11.970Z,6.68
2022-12-22T04:59:44.353Z,7.03
2022-12-22T05:03:29.507Z,5.50
2022-12-22T05:07:11.373Z,5.63
2022-12-22T05:10:54.578Z,22.85
2022-12-22T05:14:37.055Z,6.57
2022-12-22T05:18:22.021Z,6.30
2022-12-22T05:22:09.965Z,6.22
2022-12-22T05:25:56.587Z,4.75
2022-12-22T05:29:38.733Z,9.25
2022-12-22T05:33:24.735Z,7.30
2022-12-22T05:37:07.016Z,6.97
2022-12-22T05:40:49.285Z,5.25
2022-12-22T05:44:31.594Z,4.97
2022-12-22T05:48:29.511Z,6.13
2022-12-22T05:52:15.065Z,5.20
2022-12-22T05:56:00.169Z,6.20
2022-12-22T05:59:42.781Z,5.70
2022-12-22T06:03:29.563Z,9.83
2022-12-22T06:07:11.769Z,7.32
2022-12-22T06:10:58.237Z,5.50
2022-12-22T06:14:40.039Z,5.07
2022-12-22T06:18:24.974Z,5.97
2022-12-22T06:22:07.492Z,6.05
2022-12-22T06:26:02.930Z,5.50
2022-12-22T06:29:45.262Z,4.00
2022-12-22T06:33:27.016Z,3.78
2022-12-22T06:37:09.210Z,5.15
2022-12-22T06:40:51.796Z,4.30
2022-12-22T06:44:33.728Z,3.50
2022-12-22T06:48:18.558Z,3.55
2022-12-22T06:52:00.467Z,5.78
2022-12-22T06:55:42.718Z,3.63
2022-12-22T06:59:24.446Z,2.45
2022-12-22T07:03:10.197Z,2.60
2022-12-22T07:06:55.005Z,2.67
2022-12-22T07:10:57.993Z,4.32
2022-12-22T07:14:41.027Z,2.97
2022-12-22T07:18:22.831Z,6.25
2022-12-22T07:22:04.575Z,4.47
2022-12-22T07:25:46.299Z,4.28
2022-12-22T07:29:28.019Z,3.50
2022-12-22T07:33:09.898Z,5.07
2022-12-22T07:36:51.631Z,5.15
2022-12-22T07:40:36.745Z,5.00
2022-12-22T07:44:21.302Z,8.68
2022-12-22T07:48:23.934Z,8.38
2022-12-22T07:52:05.763Z,9.60
2022-12-22T07:55:47.507Z,6.60
2022-12-22T07:59:29.244Z,9.05
2022-12-22T08:03:11.016Z,10.50
2022-12-22T08:06:52.947Z,7.90
2022-12-22T08:10:34.725Z,8.57
2022-12-22T08:14:16.437Z,11.32
2022-12-22T08:17:58.180Z,11.43
2022-12-22T08:21:39.965Z,6.90
2022-12-22T08:25:21.707Z,7.57
2022-12-22T08:29:07.887Z,7.50
2022-12-22T08:32:51.122Z,7.40
2022-12-22T08:36:36.580Z,8.27
2022-12-22T08:40:22.960Z,8.48
2022-12-22T08:44:07.538Z,12.57
2022-12-22T08:47:49.266Z,13.93
2022-12-22T08:51:30.981Z,14.95
2022-12-22T08:55:12.743Z,15.00
2022-12-22T08:58:54.472Z,23.63
2022-12-22T09:02:36.714Z,18.33
2022-12-22T09:06:26.792Z,18.83
2022-12-22T09:10:10.040Z,18.65
2022-12-22T09:13:53.804Z,17.90
2022-12-22T09:17:36.315Z,20.63
2022-12-22T09:21:18.626Z,16.73
2022-12-22T09:25:00.397Z,25.88
2022-12-22T09:28:46.583Z,13.80
2022-12-22T09:32:31.738Z,25.15
2022-12-22T09:36:15.965Z,17.90
2022-12-22T09:39:57.687Z,23.67
2022-12-22T09:43:39.442Z,17.65
2022-12-22T09:47:36.070Z,24.63
2022-12-22T09:51:24.538Z,25.15
2022-12-22T09:55:26.544Z,19.75
2022-12-22T09:59:19.867Z,21.67
2022-12-22T10:03:30.615Z,22.05
2022-12-22T10:07:22.918Z,17.38
2022-12-22T10:11:04.903Z,17.48
2022-12-22T10:14:49.297Z,23.77
2022-12-22T10:18:32.028Z,22.92
2022-12-22T10:22:30.611Z,19.45
2022-12-22T10:26:32.669Z,16.13
2022-12-22T10:30:35.462Z,18.02
2022-12-22T10:34:18.121Z,14.67
2022-12-22T10:37:59.873Z,13.55
2022-12-22T10:41:45.897Z,10.98
2022-12-22T10:45:28.302Z,13.15
2022-12-22T10:49:20.155Z,7.47
2022-12-22T10:53:03.426Z,9.13
2022-12-22T10:57:03.052Z,13.25
2022-12-22T11:01:00.946Z,8.77
2022-12-22T11:04:42.873Z,12.57
2022-12-22T11:08:25.440Z,8.18
2022-12-22T11:12:16.270Z,8.57
2022-12-22T11:16:07.809Z,12.20
2022-12-22T11:19:58.772Z,11.70
2022-12-22T11:24:13.555Z,12.20
2022-12-22T11:28:38.136Z,15.93
2022-12-22T11:32:41.001Z,13.30
2022-12-22T11:36:38.215Z,11.88
2022-12-22T11:40:43.265Z,12.45
2022-12-22T11:44:48.041Z,12.70
2022-12-22T11:48:45.012Z,14.93
2022-12-22T11:52:57.720Z,8.48
2022-12-22T11:56:58.423Z,11.68
2022-12-22T12:01:13.979Z,12.82
2022-12-22T12:05:24.138Z,7.30
2022-12-22T12:09:30.484Z,9.60
2022-12-22T12:13:39.861Z,9.57
2022-12-22T12:17:29.870Z,9.45
2022-12-22T12:21:42.066Z,10.30
2022-12-22T12:25:47.261Z,7.57
2022-12-22T12:29:34.277Z,7.97
2022-12-22T12:33:24.801Z,10.77
2022-12-22T12:37:26.373Z,6.45
2022-12-22T12:41:30.164Z,12.80
2022-12-22T12:45:35.009Z,7.72
2022-12-22T12:49:35.234Z,9.13
2022-12-22T12:53:18.386Z,8.50
2022-12-22T12:57:21.892Z,13.25
2022-12-22T13:05:13.060Z,12.30
2022-12-22T13:09:48.680Z,8.98
2022-12-22T13:13:34.910Z,11.50
2022-12-22T13:17:38.355Z,17.73
2022-12-22T13:25:53.764Z,14.75
2022-12-22T13:29:58.113Z,9.90
2022-12-22T13:33:42.013Z,8.70
2022-12-22T13:37:29.083Z,10.30
2022-12-22T13:41:26.897Z,13.43
2022-12-22T13:45:45.763Z,10.98
2022-12-22T13:49:59.181Z,13.90
2022-12-22T13:57:41.867Z,12.88
2022-12-22T14:01:23.860Z,10.45
2022-12-22T14:05:09.026Z,9.43
2022-12-22T14:08:50.847Z,12.05
2022-12-22T14:12:43.019Z,10.95
2022-12-22T14:16:24.879Z,13.68
2022-12-22T14:20:32.412Z,18.80
2022-12-22T14:24:21.377Z,15.20
2022-12-22T14:28:14.938Z,14.75
2022-12-22T14:32:02.651Z,11.50
2022-12-22T14:35:44.753Z,12.90
2022-12-22T14:39:31.972Z,17.00
2022-12-22T14:43:16.541Z,15.57
2022-12-22T14:47:16.226Z,16.13
2022-12-22T14:50:58.271Z,13.20
2022-12-22T14:54:40.203Z,13.52
2022-12-22T14:58:29.091Z,17.05
2022-12-22T15:02:27.190Z,14.10
2022-12-22T15:06:27.335Z,10.70
2022-12-22T15:10:17.371Z,12.30
2022-12-22T15:13:59.545Z,14.50
2022-12-22T15:17:43.228Z,15.93
2022-12-22T15:21:24.974Z,11.73
2022-12-22T15:25:19.989Z,20.15
2022-12-22T15:29:01.691Z,11.88
2022-12-22T15:32:44.044Z,17.08
2022-12-22T15:36:25.956Z,12.80
2022-12-22T15:40:23.313Z,13.15
2022-12-22T15:44:05.051Z,16.60
2022-12-22T15:47:55.685Z,13.48
2022-12-22T15:51:37.871Z,17.92
2022-12-22T15:55:20.361Z,17.23
2022-12-22T15:59:02.521Z,15.70
2022-12-22T16:02:44.804Z,12.68
2022-12-22T16:06:26.775Z,12.23
2022-12-22T16:10:20.748Z,11.18
2022-12-22T16:14:02.541Z,12.27
2022-12-22T16:17:47.694Z,12.77
2022-12-22T16:21:32.556Z,11.38
2022-12-22T16:25:18.606Z,12.88
2022-12-22T16:29:00.422Z,10.68
2022-12-22T16:32:42.332Z,16.52
2022-12-22T16:36:24.179Z,10.55
2022-12-22T16:40:06.627Z,9.23
2022-12-22T16:43:49.299Z,6.37
2022-12-22T16:47:36.266Z,11.18
2022-12-22T16:51:26.903Z,7.40
2022-12-22T16:55:20.601Z,4.40
2022-12-22T16:59:04.531Z,8.40
2022-12-22T17:02:50.486Z,9.23
2022-12-22T17:06:33.050Z,6.20
2022-12-22T17:10:15.720Z,9.73
2022-12-22T17:14:04.583Z,14.73
2022-12-22T17:17:46.350Z,24.70
2022-12-22T17:21:29.782Z,10.18
2022-12-22T17:25:22.701Z,8.30
2022-12-22T17:29:04.731Z,11.82
2022-12-22T17:32:47.004Z,8.48
2022-12-22T17:36:35.751Z,9.30
2022-12-22T17:40:30.504Z,8.43
2022-12-22T17:44:21.305Z,10.57
2022-12-22T17:48:03.549Z,11.50
2022-12-22T17:51:45.669Z,10.10
2022-12-22T17:56:06.710Z,12.18
2022-12-22T17:59:31.573Z,10.00
2022-12-22T18:03:15.181Z,15.88
2022-12-22T18:06:58.125Z,8.13
2022-12-22T18:10:40.237Z,16.00
2022-12-22T18:14:22.634Z,15.55
2022-12-22T18:18:14.275Z,15.17
2022-12-22T18:21:56.125Z,9.18
2022-12-22T18:25:37.951Z,10.20
2022-12-22T18:29:19.794Z,12.57
2022-12-22T18:33:01.536Z,11.85
2022-12-22T18:36:45.528Z,11.75
2022-12-22T18:40:33.068Z,9.48
2022-12-22T18:44:17.022Z,7.93
2022-12-22T18:47:59.021Z,7.22
2022-12-22T18:51:41.948Z,6.75
2022-12-22T18:55:26.649Z,4.00
2022-12-22T18:59:28.089Z,6.32
2022-12-22T19:03:22.498Z,4.93
2022-12-22T19:07:04.268Z,6.28
2022-12-22T19:10:54.921Z,4.82
2022-12-22T19:14:36.639Z,5.95
2022-12-22T19:18:26.262Z,4.43
2022-12-22T19:22:13.515Z,4.28
2022-12-22T19:26:06.997Z,6.35
2022-12-22T19:30:00.837Z,5.28
2022-12-22T19:33:45.117Z,6.45
2022-12-22T19:37:26.875Z,7.93
2022-12-22T19:41:26.295Z,7.00
2022-12-22T19:45:30.381Z,8.98
2022-12-22T19:49:21.265Z,11.50
2022-12-22T19:53:02.987Z,10.30
2022-12-22T19:56:48.524Z,11.15
2022-12-22T20:00:30.347Z,10.10
2022-12-22T20:04:12.670Z,9.38
2022-12-22T20:08:00.145Z,9.88
2022-12-22T20:11:43.606Z,5.35
2022-12-22T20:15:28.465Z,5.20
2022-12-22T20:19:14.683Z,5.60
2022-12-22T20:22:59.393Z,8.13
2022-12-22T20:26:41.334Z,10.80
2022-12-22T20:30:29.198Z,11.93
2022-12-22T20:34:11.063Z,10.30
2022-12-22T20:37:53.070Z,6.35
2022-12-22T20:41:34.776Z,8.02
2022-12-22T20:45:17.024Z,9.73
2022-12-22T20:49:05.083Z,5.65
2022-12-22T20:52:47.788Z,11.13
2022-12-22T20:56:38.296Z,6.13
2022-12-22T21:00:25.055Z,4.57
2022-12-22T21:04:06.831Z,7.00
2022-12-22T21:07:49.707Z,3.72
2022-12-22T21:11:31.964Z,3.65
2022-12-22T21:15:22.701Z,5.55
2022-12-22T21:19:04.468Z,34.78
2022-12-22T21:22:47.546Z,20.52
2022-12-22T21:26:32.379Z,5.95
2022-12-22T21:30:19.047Z,5.72
2022-12-22T21:34:01.090Z,4.07
2022-12-22T21:37:44.784Z,5.45
2022-12-22T21:41:45.464Z,6.72
2022-12-22T21:45:30.532Z,5.50
2022-12-22T21:49:19.833Z,7.13
2022-12-22T21:53:02.484Z,6.00
2022-12-22T21:56:44.294Z,7.80
2022-12-22T22:00:27.900Z,7.45
2022-12-22T22:04:13.974Z,5.03
2022-12-22T22:07:56.932Z,3.80
2022-12-22T22:11:59.057Z,7.65
2022-12-22T22:15:41.205Z,3.53
2022-12-22T22:19:25.588Z,5.85
2022-12-22T22:23:10.701Z,3.65
2022-12-22T22:26:52.448Z,4.55
2022-12-22T22:30:34.187Z,4.75
2022-12-22T22:34:16.178Z,4.32
2022-12-22T22:37:57.965Z,5.18
2022-12-22T22:41:43.521Z,4.57
2022-12-22T22:45:25.623Z,3.47
2022-12-22T22:49:07.858Z,2.72
2022-12-22T22:52:49.983Z,3.38
2022-12-22T22:56:31.901Z,3.92
2022-12-22T23:00:15.937Z,3.20
2022-12-22T23:03:57.833Z,3.55
2022-12-22T23:07:39.807Z,4.57
2022-12-22T23:11:21.756Z,3.67
2022-12-22T23:15:05.159Z,4.35
2022-12-22T23:22:29.274Z,4.40
2022-12-22T23:26:14.116Z,4.07
2022-12-22T23:29:57.357Z,5.55
2022-12-22T23:37:23.553Z,5.53
2022-12-22T23:41:11.442Z,7.93
2022-12-22T23:44:53.238Z,10.15
2022-12-22T23:48:41.540Z,5.45
2022-12-22T23:52:23.309Z,3.95
2022-12-22T23:56:05.848Z,3.75
2022-12-22T23:59:48.200Z,3.37
